Time;durP1;ratioP1;P1;durP2;ratioP2;P2;SDS_P1;SDS_P2;PMS_P1;PMS_P2;Temp;Humidity;BMP_temperature;BMP_pressure;BME280_temperature;BME280_humidity;BME280_pressure;Samples;Min_cycle;Max_cycle;Signal;HPM_P1;HPM_P2
2021/11/03 00:00:32;;;;;;;41.95;26.77;;;;;;;7.91;87.40;98765.64;1724713;82;21024;-68
2021/11/03 00:02:58;;;;;;;41.50;27.00;;;;;;;7.89;87.41;98767.83;1717078;82;21015;-68
2021/11/03 00:05:24;;;;;;;45.23;26.80;;;;;;;7.90;87.45;98763.47;1712365;82;21490;-68
2021/11/03 00:07:52;;;;;;;39.83;26.82;;;;;;;7.91;87.46;98759.67;1739412;82;21039;-68
2021/11/03 00:10:18;;;;;;;39.40;26.93;;;;;;;7.93;87.43;98757.52;1739328;82;20964;-68
2021/11/03 00:12:46;;;;;;;41.18;26.75;;;;;;;7.95;87.42;98762.64;1736995;82;21015;-67
2021/11/03 00:15:13;;;;;;;44.58;28.10;;;;;;;7.96;87.42;98759.67;1739596;82;21027;-68
2021/11/03 00:17:39;;;;;;;46.42;29.95;;;;;;;7.98;87.40;98754.77;1738983;82;21063;-68
2021/11/03 00:20:08;;;;;;;42.83;28.87;;;;;;;7.95;87.41;98745.84;1739310;82;21012;-68
2021/11/03 00:22:35;;;;;;;40.20;28.92;;;;;;;7.94;87.53;98758.30;1737764;81;21027;-68
2021/11/03 00:25:03;;;;;;;46.37;30.68;;;;;;;7.97;87.52;98746.94;1737583;82;21510;-68
2021/11/03 00:27:29;;;;;;;43.23;27.95;;;;;;;7.96;87.41;98751.54;1746784;82;21031;-68
2021/11/03 00:29:56;;;;;;;;;;;;;;;7.98;87.37;98760.19;1735234;82;21039;-68
2021/11/03 00:32:22;;;;;;;44.65;29.77;;;;;;;8.02;87.37;98756.38;1719000;82;20183;-67
2021/11/03 00:34:49;;;;;;;;;;;;;;;7.99;87.44;98755.58;1734610;82;21538;-68
2021/11/03 00:38:09;;;;;;;46.63;30.95;;;;;;;8.01;87.48;98750.14;1818339;79;22869;-67
2021/11/03 00:40:36;;;;;;;44.80;29.50;;;;;;;7.87;87.70;98757.25;1787016;80;21105;-68
2021/11/03 00:43:02;;;;;;;;;;;;;;;7.89;87.81;98752.92;1735899;83;21200;-68
2021/11/03 00:45:29;;;;;;;43.87;28.35;;;;;;;7.91;87.71;98753.44;1743595;81;20120;-67
2021/11/03 00:47:55;;;;;;;42.98;29.00;;;;;;;7.88;87.74;98753.47;1763383;81;21026;-67
2021/11/03 00:50:23;;;;;;;42.75;28.65;;;;;;;7.89;87.77;98760.52;1752671;81;21046;-67
2021/11/03 00:52:50;;;;;;;44.25;27.55;;;;;;;7.91;87.70;98768.34;1763000;81;21528;-67
2021/11/03 00:55:17;;;;;;;41.65;26.60;;;;;;;7.92;87.71;98760.49;1760895;81;21026;-67
2021/11/03 00:57:44;;;;;;;39.90;27.20;;;;;;;7.96;87.72;98748.02;1763824;81;21620;-67
2021/11/03 01:00:12;;;;;;;44.23;28.80;;;;;;;7.97;87.64;98746.36;1761946;80;20967;-67
2021/11/03 01:02:39;;;;;;;39.00;27.27;;;;;;;7.95;87.79;98746.38;1761425;81;21463;-67
2021/11/03 01:05:07;;;;;;;42.70;27.25;;;;;;;7.97;87.81;98747.72;1763641;81;21050;-68
2021/11/03 01:07:33;;;;;;;40.38;27.05;;;;;;;7.99;87.71;98741.49;1761684;81;21038;-67
2021/11/03 01:10:00;;;;;;;42.23;27.85;;;;;;;8.01;87.67;98746.62;1759861;81;20935;-68
2021/11/03 01:12:26;;;;;;;41.48;25.48;;;;;;;8.02;87.64;98744.18;1763435;81;21054;-67
2021/11/03 01:14:52;;;;;;;38.23;25.88;;;;;;;8.04;87.61;98751.50;1733661;83;21043;-68
2021/11/03 01:17:19;;;;;;;41.00;26.23;;;;;;;8.05;87.60;98747.69;1741040;81;21058;-67
2021/11/03 01:19:45;;;;;;;;;;;;;;;8.07;87.60;98749.59;1746003;81;21465;-67
2021/11/03 01:22:11;;;;;;;40.85;26.52;;;;;;;8.06;87.61;98749.85;1758312;81;20152;-67
2021/11/03 01:24:38;;;;;;;39.42;27.07;;;;;;;7.95;87.94;98751.27;1745716;81;21021;-67
2021/11/03 01:27:05;;;;;;;;;;;;;;;7.98;88.10;98745.82;1764299;81;21115;-67
2021/11/03 01:29:31;;;;;;;40.15;27.02;;;;;;;8.04;88.03;98743.37;1755112;81;20431;-67
2021/11/03 01:31:58;;;;;;;40.05;27.20;;;;;;;8.04;88.08;98743.37;1735789;81;20994;-67
2021/11/03 01:34:24;;;;;;;40.23;26.07;;;;;;;8.06;88.09;98741.18;1757542;81;21532;-67
2021/11/03 01:36:51;;;;;;;39.78;26.95;;;;;;;8.11;88.10;98741.17;1709352;82;21031;-67
2021/11/03 01:39:17;;;;;;;38.13;25.60;;;;;;;8.14;88.11;98737.89;1747436;81;21526;-68
2021/11/03 01:41:43;;;;;;;43.92;26.57;;;;;;;8.18;88.11;98740.31;1771889;81;21077;-68
2021/11/03 01:44:13;;;;;;;40.63;26.40;;;;;;;8.21;88.09;98742.45;1752134;81;21490;-68
2021/11/03 01:47:37;;;;;;;36.73;25.72;;;;;;;8.25;88.05;98739.45;1747828;81;21051;-67
2021/11/03 01:50:17;;;;;;;43.38;27.13;;;;;;;8.27;88.04;98735.91;1764073;81;21003;-67
2021/11/03 01:52:43;;;;;;;38.23;25.52;;;;;;;8.28;88.10;98743.50;1744910;81;21037;-68
2021/11/03 01:55:11;;;;;;;40.15;26.12;;;;;;;8.29;88.13;98744.59;1744084;81;20995;-67
2021/11/03 01:57:46;;;;;;;36.63;24.12;;;;;;;8.31;88.11;98746.49;1722622;81;21059;-67
2021/11/03 02:00:18;;;;;;;42.88;24.95;;;;;;;8.33;88.15;98740.23;1771890;81;20995;-67
2021/11/03 02:02:46;;;;;;;40.25;25.25;;;;;;;8.35;88.10;98744.84;1764971;81;21035;-68
2021/11/03 02:05:15;;;;;;;39.27;24.82;;;;;;;8.39;88.08;98746.45;1772138;81;21000;-68
2021/11/03 02:07:42;;;;;;;37.28;24.47;;;;;;;8.41;88.08;98743.70;1773838;81;21523;-67
2021/11/03 02:10:11;;;;;;;36.90;24.72;;;;;;;8.42;88.05;98745.34;1771355;81;21745;-68
2021/11/03 02:12:38;;;;;;;37.00;24.82;;;;;;;8.45;88.07;98743.41;1774045;81;21103;-68
2021/11/03 02:15:06;;;;;;;36.83;22.90;;;;;;;8.46;88.07;98743.69;1773854;81;20980;-67
2021/11/03 02:17:33;;;;;;;40.52;25.55;;;;;;;8.49;88.05;98741.77;1726456;82;21087;-67
2021/11/03 02:20:01;;;;;;;38.63;25.08;;;;;;;8.54;88.02;98744.97;1696552;81;20991;-68
2021/11/03 02:22:36;;;;;;;39.48;26.15;;;;;;;8.56;87.99;98741.98;1752072;81;21507;-67
2021/11/03 02:25:14;;;;;;;39.18;25.57;;;;;;;8.55;88.10;98742.52;1764163;81;21295;-67
2021/11/03 02:27:43;;;;;;;35.88;23.98;;;;;;;8.61;88.08;98740.60;1767874;81;21047;-68
2021/11/03 02:30:12;;;;;;;34.85;23.73;;;;;;;8.64;87.98;98740.84;1767054;81;20991;-67
2021/11/03 02:32:41;;;;;;;35.60;23.62;;;;;;;8.67;87.85;98743.53;1770167;81;21566;-67
2021/11/03 02:35:07;;;;;;;34.05;22.37;;;;;;;8.67;87.76;98745.70;1765030;81;21512;-68
2021/11/03 02:37:48;;;;;;;34.33;22.65;;;;;;;8.67;87.79;98747.06;1770316;81;21142;-68
2021/11/03 02:40:49;;;;;;;32.17;21.97;;;;;;;8.68;87.82;98738.38;1753634;81;21538;-68
2021/11/03 02:43:24;;;;;;;32.70;22.45;;;;;;;8.71;87.85;98739.16;1748793;81;21464;-67
2021/11/03 02:45:57;;;;;;;35.20;23.40;;;;;;;8.71;87.86;98746.77;1765812;81;21124;-67
2021/11/03 02:48:25;;;;;;;35.48;22.45;;;;;;;8.73;87.87;98755.41;1766528;81;21096;-66
2021/11/03 02:51:09;;;;;;;36.03;23.07;;;;;;;8.74;87.84;98746.73;1765787;81;21059;-66
2021/11/03 02:53:47;;;;;;;37.65;24.27;;;;;;;8.74;87.82;98746.19;1745941;81;21554;-68
2021/11/03 02:56:17;;;;;;;32.10;22.22;;;;;;;8.72;87.81;98747.00;1750571;81;21068;-68
2021/11/03 02:58:43;;;;;;;33.98;23.40;;;;;;;8.72;87.82;98747.00;1736312;81;21043;-68
2021/11/03 03:01:31;;;;;;;33.92;22.90;;;;;;;8.73;87.86;98752.70;1738572;81;21621;-68
2021/11/03 03:03:58;;;;;;;33.83;22.27;;;;;;;8.75;87.85;98745.65;1740538;81;21023;-68
2021/11/03 03:06:27;;;;;;;31.60;21.85;;;;;;;8.75;87.85;98744.29;1766270;81;21031;-68
2021/11/03 03:08:55;;;;;;;35.98;22.48;;;;;;;8.73;87.87;98744.56;1766125;81;21011;-68
2021/11/03 03:11:24;;;;;;;31.57;21.80;;;;;;;8.74;87.89;98753.52;1764519;81;21546;-68
2021/11/03 03:13:50;;;;;;;32.53;22.37;;;;;;;8.75;87.88;98751.08;1745294;81;21046;-69
2021/11/03 03:16:20;;;;;;;33.42;23.02;;;;;;;8.74;87.83;98743.48;1761077;81;21534;-68
2021/11/03 03:18:47;;;;;;;29.45;21.55;;;;;;;8.77;87.84;98752.95;1718686;82;21530;-68
2021/11/03 03:21:13;;;;;;;;;;;;;;;8.78;87.80;98751.86;1754394;81;21036;-68
2021/11/03 03:23:41;;;;;;;35.13;24.02;;;;;;;8.78;87.79;98758.64;1764015;81;20113;-68
2021/11/03 03:26:11;;;;;;;35.30;23.07;;;;;;;8.67;88.05;98761.16;1745610;81;21578;-68
2021/11/03 03:28:39;;;;;;;35.08;22.50;;;;;;;8.68;88.18;98762.22;1736720;81;21051;-68
2021/11/03 03:31:06;;;;;;;32.75;22.17;;;;;;;8.71;88.10;98750.83;1741548;81;21601;-67
2021/11/03 03:33:33;;;;;;;32.28;22.75;;;;;;;8.74;88.08;98751.62;1749738;81;21040;-67
2021/11/03 03:36:00;;;;;;;29.98;21.85;;;;;;;8.74;88.02;98750.80;1763556;81;21020;-68
2021/11/03 03:38:27;;;;;;;30.32;20.65;;;;;;;8.74;87.99;98752.97;1753563;81;20991;-68
2021/11/03 03:40:54;;;;;;;32.65;21.20;;;;;;;8.74;88.01;98745.38;1743296;82;21044;-68
2021/11/03 03:43:20;;;;;;;27.30;21.10;;;;;;;8.77;88.06;98751.05;1740606;82;21550;-68
2021/11/03 03:45:47;;;;;;;;;;;;;;;8.80;88.05;98743.69;1728161;82;21059;-68
2021/11/03 03:48:13;;;;;;;30.97;21.50;;;;;;;8.81;88.06;98741.79;1720266;83;20121;-68
2021/11/03 03:50:40;;;;;;;27.60;20.75;;;;;;;8.78;88.17;98737.75;1739090;82;21123;-68
2021/11/03 03:53:10;;;;;;;31.75;22.42;;;;;;;8.79;88.22;98744.77;1736044;82;21082;-68
2021/11/03 03:55:36;;;;;;;28.90;20.45;;;;;;;8.83;88.21;98743.66;1703323;83;21137;-68
2021/11/03 03:58:03;;;;;;;28.38;20.50;;;;;;;8.84;88.18;98746.64;1722124;82;21589;-68
2021/11/03 04:00:29;;;;;;;;;;;;;;;8.85;88.20;98750.45;1724179;82;21976;-68
2021/11/03 04:02:55;;;;;;;28.57;21.00;;;;;;;8.86;88.18;98760.19;1720788;82;20105;-68
2021/11/03 04:05:22;;;;;;;30.37;21.37;;;;;;;8.84;88.27;98758.86;1741918;82;21031;-68
2021/11/03 04:07:50;;;;;;;31.68;21.07;;;;;;;8.84;88.30;98760.22;1744143;82;21518;-68
2021/11/03 04:10:17;;;;;;;28.07;20.12;;;;;;;8.86;88.29;98759.37;1744279;82;20991;-68
2021/11/03 04:12:44;;;;;;;29.75;21.65;;;;;;;8.89;88.26;98759.61;1667595;84;21059;-68
2021/11/03 04:15:11;;;;;;;;;;;;;;;8.92;88.14;98758.25;1712414;84;21031;-68
2021/11/03 04:17:38;;;;;;;30.40;22.90;;;;;;;8.88;88.15;98754.48;1711456;84;20443;-68
2021/11/03 04:20:06;;;;;;;31.82;22.45;;;;;;;8.80;88.36;98753.73;1711832;84;21035;-68
2021/11/03 04:22:34;;;;;;;30.95;22.98;;;;;;;8.80;88.37;98755.09;1680034;85;21036;-68
2021/11/03 04:25:01;;;;;;;28.95;21.25;;;;;;;8.82;88.36;98759.13;1736635;82;21011;-68
2021/11/03 04:27:27;;;;;;;31.73;22.45;;;;;;;8.81;88.33;98767.03;1720476;82;21577;-67
2021/11/03 04:29:54;;;;;;;28.52;20.35;;;;;;;8.85;88.36;98772.70;1710084;82;20964;-68
2021/11/03 04:32:20;;;;;;;30.88;21.52;;;;;;;8.88;88.37;98770.77;1746508;82;21700;-68
2021/11/03 04:34:46;;;;;;;;;;;;;;;8.91;88.36;98762.05;1751237;82;21003;-68
2021/11/03 04:37:13;;;;;;;28.87;20.52;;;;;;;8.94;88.36;98770.44;1727890;82;20097;-68
2021/11/03 04:39:40;;;;;;;;;;;;;;;8.93;88.42;98771.53;1740650;82;20976;-69
2021/11/03 04:42:06;;;;;;;28.73;21.42;;;;;;;8.96;88.42;98771.53;1708350;82;20099;-68
2021/11/03 04:44:34;;;;;;;30.27;21.12;;;;;;;8.91;88.46;98776.98;1719391;82;20940;-68
2021/11/03 04:47:01;;;;;;;31.37;21.60;;;;;;;8.91;88.51;98781.05;1734465;82;21043;-68
2021/11/03 04:49:30;;;;;;;31.20;21.50;;;;;;;8.92;88.48;98781.33;1712260;82;21011;-68
2021/11/03 04:51:57;;;;;;;33.25;21.27;;;;;;;8.92;88.46;98778.61;1742005;81;21091;-64
2021/11/03 04:54:25;;;;;;;30.37;20.52;;;;;;;8.92;88.46;98774.00;1749263;82;21469;-64
2021/11/03 04:56:52;;;;;;;30.15;19.98;;;;;;;8.94;88.50;98777.77;1747413;82;21008;-63
2021/11/03 04:59:18;;;;;;;32.40;21.52;;;;;;;8.94;88.48;98777.77;1749684;82;21546;-64
2021/11/03 05:01:46;;;;;;;31.87;21.20;;;;;;;8.93;88.50;98782.92;1734602;82;21109;-64
2021/11/03 05:04:12;;;;;;;;;;;;;;;8.93;88.54;98779.67;1732237;82;21046;-64
2021/11/03 05:06:42;;;;;;;31.35;20.52;;;;;;;8.95;88.54;98776.69;1708300;83;20158;-64
2021/11/03 05:09:09;;;;;;;27.13;19.57;;;;;;;8.92;88.64;98782.69;1716204;82;21023;-64
2021/11/03 05:11:36;;;;;;;30.25;20.02;;;;;;;8.93;88.70;98787.81;1723370;82;21625;-65
2021/11/03 05:14:03;;;;;;;25.05;18.45;;;;;;;8.94;88.71;98788.08;1738037;82;21554;-64
2021/11/03 05:16:30;;;;;;;31.10;20.50;;;;;;;8.98;88.70;98791.86;1720815;82;21042;-64
2021/11/03 05:18:58;;;;;;;28.57;19.92;;;;;;;8.98;88.67;98791.04;1720030;83;21102;-64
2021/11/03 05:21:24;;;;;;;27.55;19.32;;;;;;;8.98;88.67;98798.64;1720848;82;21042;-64
2021/11/03 05:23:52;;;;;;;28.55;20.23;;;;;;;9.02;88.73;98804.86;1720638;82;21066;-64
2021/11/03 05:26:22;;;;;;;27.45;19.50;;;;;;;9.06;88.71;98801.84;1720621;83;21027;-64
2021/11/03 05:28:51;;;;;;;30.60;20.17;;;;;;;9.10;88.70;98807.78;1732844;82;20992;-64
2021/11/03 05:31:18;;;;;;;27.65;19.40;;;;;;;9.12;88.66;98812.91;1746622;82;21015;-64
2021/11/03 05:33:44;;;;;;;25.90;19.60;;;;;;;9.14;88.65;98822.95;1734674;82;20962;-64
2021/11/03 05:36:16;;;;;;;32.60;20.30;;;;;;;9.13;88.57;98820.78;1754245;82;21515;-64
2021/11/03 05:38:43;;;;;;;28.73;19.17;;;;;;;9.13;88.54;98825.41;1747067;81;21518;-64
2021/11/03 05:41:09;;;;;;;33.25;21.33;;;;;;;9.08;88.72;98832.22;1749763;82;21059;-64
2021/11/03 05:43:36;;;;;;;28.50;20.43;;;;;;;9.07;88.86;98836.83;1735939;82;21071;-64
2021/11/03 05:46:02;;;;;;;27.82;19.07;;;;;;;9.09;88.78;98834.66;1741836;82;21086;-65
2021/11/03 05:48:34;;;;;;;28.38;19.37;;;;;;;9.11;88.75;98845.22;1733098;82;21034;-65
2021/11/03 05:51:01;;;;;;;26.50;18.30;;;;;;;9.13;88.73;98841.15;1735146;82;21081;-66
2021/11/03 05:53:27;;;;;;;27.45;19.23;;;;;;;9.15;88.68;98848.45;1752853;82;21038;-67
2021/11/03 05:55:53;;;;;;;;;;;;;;;9.18;88.67;98857.92;1738734;81;21498;-67
2021/11/03 05:58:20;;;;;;;23.65;15.70;;;;;;;9.19;88.64;98850.05;1722608;83;20113;-64
2021/11/03 06:00:46;;;;;;;24.07;16.32;;;;;;;9.16;88.75;98857.41;1722936;83;21074;-65
2021/11/03 06:03:13;;;;;;;19.20;14.68;;;;;;;9.17;88.80;98868.55;1734211;82;21054;-64
2021/11/03 06:05:39;;;;;;;20.88;15.05;;;;;;;9.19;88.81;98863.09;1740536;82;21039;-63
2021/11/03 06:08:07;;;;;;;22.55;16.37;;;;;;;9.19;88.80;98869.88;1730190;82;21023;-63
2021/11/03 06:10:38;;;;;;;27.85;19.37;;;;;;;9.19;88.81;98875.30;1741140;82;21494;-63
2021/11/03 06:13:06;;;;;;;22.67;16.77;;;;;;;9.18;88.79;98876.94;1707660;84;21108;-63
2021/11/03 06:15:33;;;;;;;18.65;13.83;;;;;;;9.20;88.94;98882.91;1707739;84;21053;-63
2021/11/03 06:18:00;;;;;;;18.87;13.58;;;;;;;9.23;88.87;98888.58;1707887;84;21060;-63
2021/11/03 06:20:27;;;;;;;19.25;13.68;;;;;;;9.27;88.78;98896.44;1707962;83;20989;-63
2021/11/03 06:22:53;;;;;;;19.07;14.07;;;;;;;9.31;88.73;98893.42;1707922;84;21516;-63
2021/11/03 06:25:20;;;;;;;;;;;;;;;9.35;88.67;98892.30;1710514;83;20981;-63
2021/11/03 06:27:46;;;;;;;17.07;12.25;;;;;;;9.37;88.60;98899.61;1708051;83;20112;-63
2021/11/03 06:30:17;;;;;;;17.07;11.93;;;;;;;9.35;88.70;98896.37;1707854;84;21029;-64
2021/11/03 06:32:43;;;;;;;17.27;11.55;;;;;;;9.37;88.69;98890.92;1707901;83;21531;-63
2021/11/03 06:35:10;;;;;;;16.82;12.58;;;;;;;9.36;88.65;98898.80;1707790;84;21068;-63
2021/11/03 06:37:39;;;;;;;15.00;11.10;;;;;;;9.37;88.71;98909.12;1708611;83;21069;-63
2021/11/03 06:40:08;;;;;;;13.78;10.25;;;;;;;9.38;88.64;98906.67;1722180;83;21049;-63
2021/11/03 06:42:34;;;;;;;16.40;13.48;;;;;;;9.42;88.62;98904.44;1722219;83;21072;-63
2021/11/03 06:45:01;;;;;;;13.65;10.15;;;;;;;9.43;88.56;98907.97;1722585;83;21064;-64
2021/11/03 06:47:27;;;;;;;;;;;;;;;9.43;88.51;98910.69;1724825;83;21068;-64
2021/11/03 06:49:55;;;;;;;13.43;9.88;;;;;;;9.42;88.51;98917.23;1722367;83;20145;-65
2021/11/03 06:52:22;;;;;;;11.53;8.98;;;;;;;9.37;88.66;98919.44;1722440;83;21163;-63
2021/11/03 06:54:50;;;;;;;11.95;9.38;;;;;;;9.37;88.71;98919.44;1722284;83;21623;-64
2021/11/03 06:57:16;;;;;;;12.73;9.28;;;;;;;9.37;88.72;98920.80;1722281;83;21124;-65
2021/11/03 06:59:43;;;;;;;;;;;;;;;9.41;88.76;98924.58;1724811;83;21100;-64
2021/11/03 07:02:16;;;;;;;12.43;9.65;;;;;;;9.43;88.75;98925.09;1722118;83;20106;-64
2021/11/03 07:04:43;;;;;;;14.38;11.45;;;;;;;9.41;88.82;98921.86;1722173;83;21107;-64
2021/11/03 07:07:10;;;;;;;;;;;;;;;9.43;88.91;98927.80;1725012;83;21126;-64
2021/11/03 07:09:37;;;;;;;13.95;9.33;;;;;;;9.46;88.92;98924.52;1722347;83;20104;-62
2021/11/03 07:12:04;;;;;;;11.53;8.88;;;;;;;9.44;89.00;98928.08;1722318;83;21531;-62
2021/11/03 07:14:32;;;;;;;11.80;8.58;;;;;;;9.46;89.09;98919.08;1722274;83;21169;-62
2021/11/03 07:16:59;;;;;;;11.65;8.45;;;;;;;9.48;89.08;98926.42;1722094;83;21108;-61
2021/11/03 07:19:26;;;;;;;;;;;;;;;9.51;89.08;98933.18;1725013;83;21092;-61
2021/11/03 07:21:53;;;;;;;19.50;15.55;;;;;;;9.54;89.07;98931.25;1722495;83;20161;-61
2021/11/03 07:24:19;;;;;;;19.07;13.30;;;;;;;9.50;89.21;98928.29;1722452;83;21081;-61
2021/11/03 07:26:45;;;;;;;;;;;;;;;9.60;89.30;98934.75;1743021;81;21549;-62
2021/11/03 07:29:12;;;;;;;11.35;8.63;;;;;;;9.65;89.24;98930.08;1717731;81;20111;-61
2021/11/03 07:31:38;;;;;;;11.75;8.98;;;;;;;9.63;89.27;98932.82;1745426;81;21554;-63
2021/11/03 07:34:05;;;;;;;9.83;8.30;;;;;;;9.63;89.38;98936.90;1692891;85;21094;-63
2021/11/03 07:36:32;;;;;;;;;;;;;;;9.66;89.40;98939.04;1706754;83;21019;-63
2021/11/03 07:38:59;;;;;;;10.20;7.95;;;;;;;9.71;89.29;98933.55;1721669;83;20176;-63
2021/11/03 07:41:25;;;;;;;10.70;7.95;;;;;;;9.72;89.30;98938.70;1711538;84;21080;-63
2021/11/03 07:43:51;;;;;;;;;;;;;;;9.76;89.30;98933.52;1699485;84;21084;-63
2021/11/03 07:46:18;;;;;;;11.28;7.90;;;;;;;9.81;89.23;98941.63;1698182;84;20422;-63
2021/11/03 07:48:44;;;;;;;10.82;7.85;;;;;;;9.83;89.33;98943.50;1691528;84;21107;-63
2021/11/03 07:51:14;;;;;;;11.70;7.90;;;;;;;9.88;89.27;98942.89;1668881;86;21105;-63
2021/11/03 07:53:41;;;;;;;11.22;8.03;;;;;;;9.95;89.16;98946.67;1698269;84;21016;-63
2021/11/03 07:56:13;;;;;;;9.68;7.80;;;;;;;10.03;89.10;98945.20;1678945;85;21054;-63
2021/11/03 07:58:39;;;;;;;11.50;8.13;;;;;;;10.11;89.03;98950.03;1678833;85;21610;-63
2021/11/03 08:01:07;;;;;;;9.60;8.20;;;;;;;10.18;88.96;98949.17;1678660;85;21114;-63
2021/11/03 08:03:33;;;;;;;11.45;8.33;;;;;;;10.28;89.02;98949.06;1678867;85;21587;-63
2021/11/03 08:06:00;;;;;;;11.57;8.65;;;;;;;10.43;89.14;98956.52;1678706;85;21160;-63
2021/11/03 08:08:31;;;;;;;12.15;8.48;;;;;;;10.63;89.31;98963.62;1678716;85;21664;-64
2021/11/03 08:10:58;;;;;;;14.20;9.28;;;;;;;10.75;89.12;98964.02;1678916;85;21433;-64
2021/11/03 08:13:27;;;;;;;10.78;8.78;;;;;;;10.76;88.89;98956.67;1678747;85;21093;-63
2021/11/03 08:15:56;;;;;;;13.72;8.93;;;;;;;10.77;88.64;98958.30;1678705;85;21109;-64
2021/11/03 08:18:27;;;;;;;12.28;9.20;;;;;;;10.79;88.32;98966.97;1678487;84;21093;-64
2021/11/03 08:20:54;;;;;;;11.65;8.58;;;;;;;10.78;88.00;98978.41;1678575;85;21661;-65
2021/11/03 08:23:21;;;;;;;12.65;8.30;;;;;;;10.82;87.93;98974.01;1678726;85;21036;-64
2021/11/03 08:25:47;;;;;;;12.07;8.75;;;;;;;10.90;87.84;98974.73;1701641;84;21643;-63
2021/11/03 08:28:14;;;;;;;13.98;10.30;;;;;;;11.01;87.84;98974.05;1707269;84;21045;-64
2021/11/03 08:30:43;;;;;;;13.93;10.05;;;;;;;11.09;87.70;98976.67;1707432;84;21132;-64
2021/11/03 08:33:14;;;;;;;12.18;9.35;;;;;;;11.16;87.57;98973.03;1689673;84;21013;-63
2021/11/03 08:35:41;;;;;;;14.60;11.22;;;;;;;11.20;87.54;98978.94;1707084;83;21060;-64
2021/11/03 08:38:09;;;;;;;15.93;11.12;;;;;;;11.22;87.55;98983.56;1707087;84;20982;-64
2021/11/03 08:40:36;;;;;;;16.20;11.45;;;;;;;11.27;87.51;98982.11;1698389;84;21559;-64
2021/11/03 08:43:05;;;;;;;;;;;;;;;11.37;87.44;98987.41;1656263;86;21493;-64
2021/11/03 08:45:33;;;;;;;14.10;11.10;;;;;;;11.44;87.17;98989.20;1669193;85;20165;-63
2021/11/03 08:48:00;;;;;;;16.10;10.88;;;;;;;11.47;87.19;98991.37;1670820;86;21061;-64
2021/11/03 08:50:28;;;;;;;;;;;;;;;11.57;87.10;99000.48;1673184;86;21054;-64
2021/11/03 08:52:55;;;;;;;22.70;13.15;;;;;;;11.62;86.91;99003.93;1670937;85;20137;-63
2021/11/03 08:55:22;;;;;;;;;;;;;;;11.58;86.88;99006.20;1673187;86;21070;-63
2021/11/03 08:57:48;;;;;;;17.90;12.65;;;;;;;11.53;86.72;99002.18;1670968;86;20141;-63
2021/11/03 09:00:20;;;;;;;17.40;13.62;;;;;;;11.45;86.73;99003.10;1670768;86;21097;-64
2021/11/03 09:02:49;;;;;;;18.30;13.45;;;;;;;11.51;86.51;99011.22;1672841;84;20986;-64
2021/11/03 09:05:18;;;;;;;20.35;13.80;;;;;;;11.56;86.41;99013.84;1671034;86;21125;-63
2021/11/03 09:07:44;;;;;;;20.75;15.28;;;;;;;11.65;86.37;99006.64;1695396;84;21710;-63
2021/11/03 09:10:14;;;;;;;19.67;16.30;;;;;;;11.69;86.12;99013.91;1699005;84;21069;-63
2021/11/03 09:12:41;;;;;;;21.65;16.30;;;;;;;11.71;85.90;99013.66;1689740;83;21141;-63
2021/11/03 09:15:09;;;;;;;22.45;16.90;;;;;;;11.71;85.98;99013.66;1680053;84;21699;-63
2021/11/03 09:17:37;;;;;;;22.25;17.70;;;;;;;11.73;85.94;99008.16;1698557;84;21181;-64
2021/11/03 09:20:04;;;;;;;;;;;;;;;11.78;85.62;99026.36;1698609;84;21654;-63
2021/11/03 09:22:30;;;;;;;23.22;17.00;;;;;;;11.84;85.44;99030.63;1671563;84;20160;-64
2021/11/03 09:24:57;;;;;;;;;;;;;;;11.81;85.39;99033.39;1694238;84;21071;-63
2021/11/03 09:27:23;;;;;;;21.97;17.77;;;;;;;11.89;85.40;99030.00;1680832;83;20110;-64
2021/11/03 09:29:50;;;;;;;28.95;20.12;;;;;;;11.96;85.54;99024.98;1679816;84;21046;-63
2021/11/03 09:32:20;;;;;;;25.15;19.65;;;;;;;12.11;85.56;99034.83;1685404;84;21144;-63
2021/11/03 09:34:48;;;;;;;26.17;20.20;;;;;;;12.26;85.52;99033.73;1682507;84;21512;-64
2021/11/03 09:37:18;;;;;;;27.85;20.12;;;;;;;12.36;85.35;99045.28;1686471;84;21098;-63
2021/11/03 09:39:47;;;;;;;26.45;20.25;;;;;;;12.44;84.93;99040.51;1670149;84;21048;-63
2021/11/03 09:42:14;;;;;;;25.17;19.73;;;;;;;12.54;84.36;99039.50;1689142;84;21071;-63
2021/11/03 09:44:44;;;;;;;27.13;19.85;;;;;;;12.59;83.86;99049.53;1694351;84;21118;-63
2021/11/03 09:47:20;;;;;;;26.55;20.75;;;;;;;12.64;83.66;99048.89;1697603;84;21596;-63
2021/11/03 09:49:58;;;;;;;28.57;20.85;;;;;;;12.65;83.52;99046.40;1631698;88;21093;-64
2021/11/03 09:52:34;;;;;;;28.57;20.75;;;;;;;12.66;83.32;99053.48;1638821;86;21054;-63
2021/11/03 09:55:30;;;;;;;24.92;20.40;;;;;;;12.74;83.23;99053.34;1673660;86;21102;-63
2021/11/03 09:58:09;;;;;;;27.70;21.30;;;;;;;12.84;83.01;99060.79;1661510;85;21608;-63
2021/11/03 10:00:56;;;;;;;26.02;20.80;;;;;;;12.90;82.63;99060.12;1661619;86;21128;-64
2021/11/03 10:03:33;;;;;;;29.13;21.87;;;;;;;12.92;82.26;99063.37;1684750;85;21020;-63
2021/11/03 10:06:13;;;;;;;26.73;20.20;;;;;;;12.85;81.94;99064.34;1678210;84;21162;-63
2021/11/03 10:08:45;;;;;;;27.32;20.65;;;;;;;12.79;81.59;99062.24;1661559;86;21020;-63
2021/11/03 10:11:25;;;;;;;25.92;20.05;;;;;;;12.74;81.09;99057.45;1664987;85;21636;-62
2021/11/03 10:13:56;;;;;;;27.25;20.82;;;;;;;12.73;81.02;99059.91;1679489;85;21072;-62
2021/11/03 10:16:39;;;;;;;28.35;22.40;;;;;;;12.71;80.76;99073.08;1683442;85;21421;-63
2021/11/03 10:19:20;;;;;;;26.30;21.62;;;;;;;12.60;80.49;99064.81;1677031;85;21384;-63
2021/11/03 10:21:54;;;;;;;29.67;21.02;;;;;;;12.53;80.58;99072.58;1655970;85;21095;-63
2021/11/03 10:24:29;;;;;;;27.20;20.65;;;;;;;12.48;80.25;99074.84;1659343;85;21590;-63
2021/11/03 10:27:08;;;;;;;30.40;21.77;;;;;;;12.43;80.25;99079.04;1656308;86;21646;-63
2021/11/03 10:29:48;;;;;;;25.55;20.45;;;;;;;12.38;80.20;99078.56;1636645;85;21020;-63
2021/11/03 10:32:33;;;;;;;25.50;21.25;;;;;;;12.42;80.52;99074.69;1656032;86;21040;-62
2021/11/03 10:35:42;;;;;;;22.90;19.00;;;;;;;12.45;80.49;99087.73;1670393;85;21499;-62
2021/11/03 10:38:16;;;;;;;22.45;18.57;;;;;;;12.54;80.12;99082.41;1666274;86;21527;-63
2021/11/03 10:40:48;;;;;;;23.12;18.45;;;;;;;12.63;79.78;99092.32;1647205;85;21076;-62
2021/11/03 10:43:29;;;;;;;24.12;19.95;;;;;;;12.75;79.09;99086.38;1645791;87;21062;-63
2021/11/03 10:46:00;;;;;;;22.73;18.15;;;;;;;12.79;78.48;99098.30;1659172;86;21096;-63
2021/11/03 10:48:28;;;;;;;23.73;18.57;;;;;;;13.03;78.47;99098.14;1689167;85;21000;-63
2021/11/03 10:51:00;;;;;;;21.12;18.12;;;;;;;13.24;77.57;99100.20;1678078;84;21096;-62
2021/11/03 10:53:38;;;;;;;22.37;18.37;;;;;;;13.39;76.57;99109.43;1661546;86;21064;-62
2021/11/03 10:56:10;;;;;;;21.65;17.48;;;;;;;13.42;75.77;99103.38;1677484;84;21683;-62
2021/11/03 10:58:41;;;;;;;19.98;16.93;;;;;;;13.44;75.31;99110.70;1661474;86;21099;-63
2021/11/03 11:01:13;;;;;;;21.50;16.40;;;;;;;13.52;74.72;99116.57;1670009;84;21578;-62
2021/11/03 11:03:50;;;;;;;18.05;15.65;;;;;;;13.61;73.76;99114.17;1662108;86;21016;-62
2021/11/03 11:06:38;;;;;;;19.27;16.67;;;;;;;13.57;72.74;99117.26;1646943;87;21135;-63
2021/11/03 11:09:19;;;;;;;20.55;15.88;;;;;;;13.48;72.04;99121.84;1656089;86;21608;-62
2021/11/03 11:11:48;;;;;;;17.42;14.73;;;;;;;13.82;73.03;99120.00;1685718;84;21050;-62
2021/11/03 11:14:21;;;;;;;17.27;14.05;;;;;;;14.44;71.30;99119.67;1644173;86;21661;-63
2021/11/03 11:16:54;;;;;;;17.05;14.10;;;;;;;14.61;69.03;99123.08;1676333;84;21079;-63
2021/11/03 11:19:44;;;;;;;16.07;13.50;;;;;;;14.74;68.68;99120.25;1675393;84;21611;-63
2021/11/03 11:22:36;;;;;;;18.15;15.10;;;;;;;14.93;67.14;99116.73;1638843;84;21168;-62
2021/11/03 11:25:24;;;;;;;16.70;13.68;;;;;;;15.10;65.95;99121.48;1663633;85;21038;-62
2021/11/03 11:28:19;;;;;;;15.43;13.20;;;;;;;15.05;64.82;99116.72;1688304;83;21554;-63
2021/11/03 11:31:03;;;;;;;16.52;13.58;;;;;;;15.39;64.09;99125.88;1637946;85;21643;-62
2021/11/03 11:33:33;;;;;;;15.98;14.20;;;;;;;16.00;63.98;99117.79;1673977;84;21515;-63
2021/11/03 11:36:14;;;;;;;15.25;13.18;;;;;;;16.44;61.59;99122.38;1675680;85;21055;-63
2021/11/03 11:39:08;;;;;;;14.87;12.63;;;;;;;16.28;59.89;99119.08;1685312;85;21010;-63
2021/11/03 11:41:52;;;;;;;16.27;13.05;;;;;;;15.72;60.54;99126.88;1696936;84;21597;-62
2021/11/03 11:44:28;;;;;;;14.98;13.08;;;;;;;15.15;60.84;99124.66;1691406;84;21003;-63